createdAt,value
2022-08-20T00:00:09.692Z,0.00
2022-08-20T00:01:09.977Z,0.00
2022-08-20T00:02:10.347Z,0.00
2022-08-20T00:03:31.574Z,1.00
2022-08-20T00:04:31.922Z,0.00
2022-08-20T00:05:11.134Z,0.00
2022-08-20T00:06:11.448Z,0.00
2022-08-20T00:07:11.793Z,0.00
2022-08-20T00:08:11.982Z,0.00
2022-08-20T00:09:33.349Z,0.00
2022-08-20T00:10:33.599Z,0.00
2022-08-20T00:11:12.933Z,0.00
2022-08-20T00:12:13.251Z,0.00
2022-08-20T00:13:34.514Z,0.00
2022-08-20T00:14:13.850Z,0.00
2022-08-20T00:15:35.119Z,0.00
2022-08-20T00:16:14.738Z,0.00
2022-08-20T00:17:35.698Z,0.00
2022-08-20T00:18:15.004Z,0.00
2022-08-20T00:19:15.320Z,0.00
2022-08-20T00:20:15.647Z,0.00
2022-08-20T00:21:36.916Z,0.00
2022-08-20T00:22:16.228Z,0.00
2022-08-20T00:23:16.584Z,0.00
2022-08-20T00:24:37.882Z,0.00
2022-08-20T00:25:17.201Z,0.00
2022-08-20T00:26:17.462Z,0.00
2022-08-20T00:27:17.729Z,0.00
2022-08-20T00:28:18.011Z,0.00
2022-08-20T00:29:20.114Z,0.00
2022-08-20T00:30:18.536Z,0.00
2022-08-20T00:31:39.827Z,0.00
2022-08-20T00:32:19.080Z,0.00
2022-08-20T00:33:19.384Z,0.00
2022-08-20T00:34:40.712Z,0.00
2022-08-20T00:35:19.902Z,0.00
2022-08-20T00:36:21.054Z,0.00
2022-08-20T00:37:20.530Z,0.00
2022-08-20T00:38:20.794Z,0.00
2022-08-20T00:39:21.159Z,0.00
2022-08-20T00:40:22.166Z,0.00
2022-08-20T00:41:42.697Z,0.00
2022-08-20T00:42:21.916Z,0.00
2022-08-20T00:43:43.250Z,0.00
2022-08-20T00:44:22.939Z,0.00
2022-08-20T00:45:43.885Z,0.00
2022-08-20T00:46:30.933Z,1.00
2022-08-20T00:47:24.395Z,0.00
2022-08-20T00:48:44.690Z,0.00
2022-08-20T00:49:45.178Z,0.00
2022-08-20T00:50:24.255Z,0.00
2022-08-20T00:51:24.506Z,0.00
2022-08-20T00:52:49.875Z,0.00
2022-08-20T00:53:25.073Z,0.00
2022-08-20T00:54:46.347Z,0.00
2022-08-20T00:55:46.687Z,0.00
2022-08-20T00:56:25.998Z,0.00
2022-08-20T00:57:59.956Z,0.00
2022-08-20T00:58:27.563Z,0.00
2022-08-20T00:59:26.809Z,1.00
2022-08-20T01:00:48.101Z,0.00
2022-08-20T01:01:27.490Z,0.00
2022-08-20T01:02:48.705Z,0.00
2022-08-20T01:03:28.007Z,0.00
2022-08-20T01:04:49.361Z,0.00
2022-08-20T01:05:29.794Z,0.00
2022-08-20T01:06:28.852Z,0.00
2022-08-20T01:07:29.207Z,0.00
2022-08-20T01:08:50.459Z,0.00
2022-08-20T01:09:49.999Z,0.00
2022-08-20T01:10:52.097Z,0.00
2022-08-20T01:11:51.330Z,0.00
2022-08-20T01:12:30.647Z,0.00
2022-08-20T01:13:51.940Z,0.00
2022-08-20T01:14:31.238Z,0.00
2022-08-20T01:15:52.545Z,0.00
2022-08-20T01:16:31.847Z,0.00
2022-08-20T01:17:32.148Z,0.00
2022-08-20T01:18:53.458Z,1.00
2022-08-20T01:19:32.773Z,0.00
2022-08-20T01:20:33.027Z,0.00
2022-08-20T01:21:54.367Z,0.00
2022-08-20T01:22:33.675Z,0.00
2022-08-20T01:23:33.964Z,0.00
2022-08-20T01:24:34.226Z,0.00
2022-08-20T01:25:34.531Z,0.00
2022-08-20T01:26:34.833Z,0.00
2022-08-20T01:27:35.066Z,0.00
2022-08-20T01:28:36.442Z,0.00
2022-08-20T01:29:35.585Z,0.00
2022-08-20T01:30:35.934Z,0.00
2022-08-20T01:31:36.174Z,0.00
2022-08-20T01:32:36.452Z,0.00
2022-08-20T01:33:36.754Z,0.00
2022-08-20T01:34:37.014Z,0.00
2022-08-20T01:35:37.265Z,0.00
2022-08-20T01:36:37.577Z,0.00
2022-08-20T01:37:58.855Z,0.00
2022-08-20T01:38:38.213Z,0.00
2022-08-20T01:39:38.495Z,0.00
2022-08-20T01:40:38.747Z,0.00
2022-08-20T01:41:39.060Z,0.00
2022-08-20T01:42:39.428Z,0.00
2022-08-20T01:43:40.722Z,0.00
2022-08-20T01:44:39.984Z,0.00
2022-08-20T01:45:40.302Z,0.00
2022-08-20T01:46:44.006Z,0.00
2022-08-20T01:48:01.846Z,0.00
2022-08-20T01:48:41.091Z,0.00
2022-08-20T01:50:02.396Z,0.00
2022-08-20T01:50:41.729Z,0.00
2022-08-20T01:51:42.085Z,0.00
2022-08-20T01:52:42.257Z,0.00
2022-08-20T01:54:03.584Z,0.00
2022-08-20T01:54:42.745Z,0.00
2022-08-20T01:56:04.036Z,0.00
2022-08-20T01:56:43.348Z,0.00
2022-08-20T01:57:43.655Z,0.00
2022-08-20T01:59:04.966Z,0.00
2022-08-20T01:59:44.169Z,0.00
2022-08-20T02:01:05.439Z,0.00
2022-08-20T02:01:46.439Z,0.00
2022-08-20T02:02:45.021Z,0.00
2022-08-20T02:04:06.316Z,0.00
2022-08-20T02:05:07.565Z,0.00
2022-08-20T02:05:45.894Z,0.00
2022-08-20T02:06:56.139Z,0.00
2022-08-20T02:08:08.477Z,0.00
2022-08-20T02:08:46.757Z,0.00
2022-08-20T02:10:08.013Z,0.00
2022-08-20T02:10:47.320Z,0.00
2022-08-20T02:12:08.567Z,0.00
2022-08-20T02:12:47.860Z,0.00
2022-08-20T02:14:09.219Z,0.00
2022-08-20T02:14:48.396Z,0.00
2022-08-20T02:16:09.703Z,0.00
2022-08-20T02:17:10.006Z,0.00
2022-08-20T02:17:49.369Z,0.00
2022-08-20T02:19:10.705Z,0.00
2022-08-20T02:19:49.907Z,0.00
2022-08-20T02:21:11.206Z,0.00
2022-08-20T02:22:11.558Z,0.00
2022-08-20T02:22:50.851Z,0.00
2022-08-20T02:24:12.015Z,0.00
2022-08-20T02:24:51.335Z,0.00
2022-08-20T02:26:12.592Z,0.00
2022-08-20T02:26:51.907Z,0.00
2022-08-20T02:28:13.261Z,0.00
2022-08-20T02:28:52.440Z,0.00
2022-08-20T02:29:52.755Z,0.00
2022-08-20T02:30:53.101Z,0.00
2022-08-20T02:32:25.065Z,0.00
2022-08-20T02:33:15.655Z,0.00
2022-08-20T02:34:22.742Z,1.00
2022-08-20T02:34:55.249Z,0.00
2022-08-20T02:35:54.520Z,0.00
2022-08-20T02:36:54.848Z,0.00
2022-08-20T02:37:55.291Z,0.00
2022-08-20T02:38:55.401Z,0.00
2022-08-20T02:39:55.721Z,0.00
2022-08-20T02:40:56.007Z,0.00
2022-08-20T02:41:56.260Z,0.00
2022-08-20T02:43:17.612Z,0.00
2022-08-20T02:44:17.923Z,0.00
2022-08-20T02:44:57.155Z,0.00
2022-08-20T02:46:18.329Z,0.00
2022-08-20T02:47:18.648Z,0.00
2022-08-20T02:47:58.196Z,0.00
2022-08-20T02:48:58.324Z,0.00
2022-08-20T02:49:58.595Z,0.00
2022-08-20T02:50:58.867Z,0.00
2022-08-20T02:52:20.162Z,0.00
2022-08-20T02:52:59.474Z,0.00
2022-08-20T02:53:59.776Z,0.00
2022-08-20T02:55:00.105Z,0.00
2022-08-20T02:56:00.425Z,0.00
2022-08-20T02:57:00.788Z,0.00
2022-08-20T02:58:00.985Z,0.00
2022-08-20T02:59:22.257Z,0.00
2022-08-20T03:00:01.575Z,0.00
2022-08-20T03:01:01.878Z,0.00
2022-08-20T03:02:02.144Z,0.00
2022-08-20T03:03:23.483Z,0.00
2022-08-20T03:04:02.789Z,0.00
2022-08-20T03:05:03.107Z,0.00
2022-08-20T03:06:24.419Z,0.00
2022-08-20T03:07:03.722Z,0.00
2022-08-20T03:08:25.123Z,0.00
2022-08-20T03:09:04.379Z,0.00
2022-08-20T03:10:04.628Z,0.00
2022-08-20T03:11:04.953Z,0.00
2022-08-20T03:12:05.257Z,0.00
2022-08-20T03:13:26.580Z,0.00
2022-08-20T03:14:05.824Z,0.00
2022-08-20T03:15:27.104Z,0.00
2022-08-20T03:16:06.447Z,0.00
2022-08-20T03:17:06.829Z,0.00
2022-08-20T03:18:06.992Z,0.00
2022-08-20T03:19:07.315Z,0.00
2022-08-20T03:20:07.579Z,0.00
2022-08-20T03:21:28.948Z,0.00
2022-08-20T03:22:29.158Z,0.00
2022-08-20T03:23:08.480Z,0.00
2022-08-20T03:24:29.714Z,0.00
2022-08-20T03:25:30.045Z,0.00
2022-08-20T03:26:09.370Z,0.00
2022-08-20T03:27:32.632Z,0.00
2022-08-20T03:28:10.998Z,0.00
2022-08-20T03:29:10.156Z,0.00
2022-08-20T03:30:31.466Z,0.00
2022-08-20T03:31:31.794Z,0.00
2022-08-20T03:32:11.140Z,0.00
2022-08-20T03:33:11.452Z,0.00
2022-08-20T03:34:11.753Z,0.00
2022-08-20T03:35:12.006Z,0.00
2022-08-20T03:36:33.602Z,0.00
2022-08-20T03:37:12.557Z,0.00
2022-08-20T03:38:12.816Z,0.00
2022-08-20T03:39:34.304Z,0.00
2022-08-20T03:40:13.499Z,0.00
2022-08-20T03:41:13.774Z,0.00
2022-08-20T03:42:14.111Z,0.00
2022-08-20T03:43:14.343Z,1.00
2022-08-20T03:44:14.752Z,0.00
2022-08-20T03:45:36.049Z,0.00
2022-08-20T03:46:36.382Z,0.00
2022-08-20T03:47:15.695Z,0.00
2022-08-20T03:48:15.971Z,0.00
2022-08-20T03:49:37.258Z,0.00
2022-08-20T03:50:22.911Z,0.00
2022-08-20T03:51:17.810Z,0.00
2022-08-20T03:52:17.100Z,0.00
2022-08-20T03:53:17.433Z,0.00
2022-08-20T03:54:17.688Z,0.00
2022-08-20T03:55:18.032Z,0.00
2022-08-20T03:56:18.294Z,0.00
2022-08-20T03:57:39.590Z,0.00
2022-08-20T03:58:18.772Z,1.00
2022-08-20T03:59:40.137Z,1.00
2022-08-20T04:00:40.459Z,1.00
2022-08-20T04:01:45.697Z,2.00
2022-08-20T04:02:21.151Z,0.00
2022-08-20T04:03:20.384Z,2.00
2022-08-20T04:04:20.759Z,2.00
2022-08-20T04:05:20.961Z,1.00
2022-08-20T04:06:21.292Z,3.00
2022-08-20T04:07:21.608Z,2.00
2022-08-20T04:08:21.976Z,3.00
2022-08-20T04:09:43.324Z,4.00
2022-08-20T04:10:22.482Z,5.00
2022-08-20T04:11:22.818Z,9.00
2022-08-20T04:12:23.054Z,9.00
2022-08-20T04:13:23.741Z,8.00
2022-08-20T04:14:44.735Z,9.00
2022-08-20T04:15:45.020Z,11.00
2022-08-20T04:16:24.406Z,8.00
2022-08-20T04:17:24.634Z,9.00
2022-08-20T04:18:24.970Z,8.00
2022-08-20T04:19:46.175Z,11.00
2022-08-20T04:20:25.462Z,17.00
2022-08-20T04:21:26.162Z,16.00
2022-08-20T04:22:27.049Z,20.00
2022-08-20T04:23:26.372Z,21.00
2022-08-20T04:24:47.641Z,25.00
2022-08-20T04:25:26.831Z,27.00
2022-08-20T04:26:27.154Z,29.00
2022-08-20T04:27:48.456Z,25.00
2022-08-20T04:28:27.759Z,33.00
2022-08-20T04:29:31.988Z,32.00
2022-08-20T04:30:28.381Z,37.00
2022-08-20T04:31:28.631Z,39.00
2022-08-20T04:32:28.876Z,43.00
2022-08-20T04:33:50.092Z,47.00
2022-08-20T04:34:29.382Z,49.00
2022-08-20T04:35:29.718Z,53.00
2022-08-20T04:36:51.061Z,56.00
2022-08-20T04:37:30.360Z,56.00
2022-08-20T04:38:50.117Z,59.00
2022-08-20T04:39:32.164Z,62.00
2022-08-20T04:40:31.318Z,66.00
2022-08-20T04:41:52.575Z,70.00
2022-08-20T04:42:59.562Z,79.00
2022-08-20T04:43:32.197Z,81.00
2022-08-20T04:44:32.416Z,90.00
2022-08-20T04:45:53.639Z,94.00
2022-08-20T04:46:32.935Z,100.00
2022-08-20T04:47:34.539Z,106.00
2022-08-20T04:48:33.538Z,107.00
2022-08-20T04:49:33.850Z,118.00
2022-08-20T04:50:34.101Z,118.00
2022-08-20T04:51:34.320Z,126.00
2022-08-20T04:52:55.668Z,130.00
2022-08-20T04:53:56.005Z,135.00
2022-08-20T04:54:56.332Z,137.00
2022-08-20T04:55:35.639Z,143.00
2022-08-20T04:56:35.891Z,148.00
2022-08-20T04:57:36.098Z,155.00
2022-08-20T04:58:36.481Z,161.00
2022-08-20T04:59:59.512Z,165.00
2022-08-20T05:00:36.987Z,170.00
2022-08-20T05:01:37.431Z,177.00
2022-08-20T05:02:37.668Z,170.00
2022-08-20T05:03:59.039Z,181.00
2022-08-20T05:05:06.008Z,187.00
2022-08-20T05:05:59.604Z,192.00
2022-08-20T05:06:59.896Z,195.00
2022-08-20T05:07:39.203Z,202.00
2022-08-20T05:09:00.594Z,207.00
2022-08-20T05:09:44.189Z,214.00
2022-08-20T05:10:40.102Z,226.00
2022-08-20T05:11:40.359Z,222.00
2022-08-20T05:12:40.594Z,230.00
2022-08-20T05:13:40.848Z,230.00
2022-08-20T05:14:41.077Z,244.00
2022-08-20T05:15:41.431Z,245.00
2022-08-20T05:16:41.644Z,250.00
2022-08-20T05:18:03.028Z,251.00
2022-08-20T05:18:42.357Z,253.00
2022-08-20T05:20:03.612Z,251.00
2022-08-20T05:20:42.897Z,259.00
2022-08-20T05:22:04.232Z,250.00
2022-08-20T05:22:43.537Z,246.00
2022-08-20T05:23:43.765Z,247.00
2022-08-20T05:25:05.022Z,247.00
2022-08-20T05:25:44.258Z,251.00
2022-08-20T05:27:05.500Z,245.00
2022-08-20T05:28:05.799Z,249.00
2022-08-20T05:28:53.852Z,252.00
2022-08-20T05:30:07.397Z,272.00
2022-08-20T05:30:45.730Z,294.00
2022-08-20T05:31:45.986Z,324.00
2022-08-20T05:32:46.377Z,341.00
2022-08-20T05:33:46.657Z,354.00
2022-08-20T05:35:07.869Z,386.00
2022-08-20T05:35:47.190Z,419.00
2022-08-20T05:37:09.096Z,428.00
2022-08-20T05:37:47.717Z,419.00
2022-08-20T05:38:49.639Z,417.00
2022-08-20T05:39:48.371Z,427.00
2022-08-20T05:40:48.569Z,407.00
2022-08-20T05:41:48.812Z,375.00
2022-08-20T05:42:49.031Z,346.00
2022-08-20T05:43:49.301Z,328.00
2022-08-20T05:44:49.505Z,308.00
2022-08-20T05:45:53.442Z,261.00
2022-08-20T05:46:51.616Z,217.00
2022-08-20T05:47:56.449Z,203.00
2022-08-20T05:48:51.548Z,189.00
2022-08-20T05:49:50.806Z,190.00
2022-08-20T05:50:51.036Z,197.00
2022-08-20T05:51:51.232Z,211.00
2022-08-20T05:52:51.640Z,232.00
2022-08-20T05:53:51.875Z,249.00
2022-08-20T05:54:52.082Z,265.00
2022-08-20T05:55:52.456Z,265.00
2022-08-20T05:56:52.684Z,282.00
2022-08-20T05:57:53.041Z,305.00
2022-08-20T05:58:53.253Z,329.00
2022-08-20T05:59:53.487Z,338.00
2022-08-20T06:00:53.889Z,345.00
2022-08-20T06:01:54.077Z,334.00
2022-08-20T06:02:54.335Z,323.00
2022-08-20T06:03:54.551Z,324.00
2022-08-20T06:04:56.267Z,346.00
2022-08-20T06:05:55.201Z,363.00
2022-08-20T06:06:55.531Z,361.00
2022-08-20T06:08:07.266Z,368.00
2022-08-20T06:08:57.204Z,370.00
2022-08-20T06:09:56.333Z,407.00
2022-08-20T06:10:56.552Z,472.00
2022-08-20T06:11:59.146Z,523.00
2022-08-20T06:12:57.103Z,567.00
2022-08-20T06:13:57.432Z,599.00
2022-08-20T06:14:57.970Z,594.00
2022-08-20T06:15:58.018Z,579.00
2022-08-20T06:17:19.272Z,590.00
2022-08-20T06:17:58.819Z,596.00
2022-08-20T06:19:26.178Z,613.00
2022-08-20T06:20:00.168Z,622.00
2022-08-20T06:21:20.424Z,599.00
2022-08-20T06:21:59.735Z,578.00
2022-08-20T06:23:00.104Z,589.00
2022-08-20T06:24:01.611Z,610.00
2022-08-20T06:25:00.652Z,710.00
2022-08-20T06:26:00.896Z,741.00
2022-08-20T06:28:16.423Z,880.00
2022-08-20T06:29:16.237Z,894.00
2022-08-20T06:30:16.506Z,842.00
2022-08-20T06:31:16.798Z,838.00
2022-08-20T06:32:16.992Z,852.00
2022-08-20T06:33:17.334Z,842.00
2022-08-20T06:34:17.546Z,814.00
2022-08-20T06:35:20.029Z,746.00
2022-08-20T06:36:19.024Z,714.00
2022-08-20T06:37:18.909Z,713.00
2022-08-20T06:38:18.781Z,704.00
2022-08-20T06:39:18.980Z,720.00
2022-08-20T06:40:19.451Z,695.00
2022-08-20T06:41:19.657Z,625.00
2022-08-20T06:42:20.809Z,544.00
2022-08-20T06:43:20.122Z,517.00
2022-08-20T06:44:20.374Z,511.00
2022-08-20T06:45:20.717Z,529.00
2022-08-20T06:46:20.913Z,593.00
2022-08-20T06:47:21.468Z,576.00
2022-08-20T06:48:21.522Z,580.00
2022-08-20T06:49:21.863Z,540.00
2022-08-20T06:50:22.256Z,527.00
2022-08-20T06:51:22.477Z,464.00
2022-08-20T06:52:27.153Z,418.00
2022-08-20T06:53:24.072Z,421.00
2022-08-20T06:54:23.312Z,427.00
2022-08-20T06:55:24.621Z,441.00
2022-08-20T06:56:23.964Z,439.00
2022-08-20T06:57:24.296Z,493.00
2022-08-20T06:58:36.322Z,611.00
2022-08-20T06:59:25.836Z,702.00
2022-08-20T07:00:25.091Z,739.00
2022-08-20T07:01:25.382Z,770.00
2022-08-20T07:02:29.200Z,638.00
2022-08-20T07:03:25.927Z,583.00
2022-08-20T07:04:26.134Z,601.00
2022-08-20T07:05:26.449Z,848.00
2022-08-20T07:06:27.797Z,1092.00
2022-08-20T07:07:27.051Z,1275.00
2022-08-20T07:08:27.389Z,1238.00
2022-08-20T07:09:27.617Z,1133.00
2022-08-20T07:10:27.836Z,1010.00
2022-08-20T07:11:28.960Z,965.00
2022-08-20T07:12:28.512Z,950.00
2022-08-20T07:13:28.678Z,901.00
2022-08-20T07:14:29.024Z,918.00
2022-08-20T07:15:29.336Z,826.00
2022-08-20T07:16:30.054Z,720.00
2022-08-20T07:17:29.852Z,677.00
2022-08-20T07:18:30.031Z,742.00
2022-08-20T07:19:30.361Z,746.00
2022-08-20T07:20:30.733Z,734.00
2022-08-20T07:21:30.997Z,682.00
2022-08-20T07:22:31.250Z,595.00
2022-08-20T07:23:31.482Z,480.00
2022-08-20T07:24:33.232Z,457.00
2022-08-20T07:25:31.977Z,528.00
2022-08-20T07:26:32.207Z,604.00
2022-08-20T07:27:32.444Z,745.00
2022-08-20T07:28:32.852Z,798.00
2022-08-20T07:29:32.888Z,802.00
2022-08-20T07:30:33.225Z,738.00
2022-08-20T07:31:34.886Z,678.00
2022-08-20T07:32:33.911Z,694.00
2022-08-20T07:33:34.238Z,756.00
2022-08-20T07:34:34.445Z,764.00
2022-08-20T07:35:34.693Z,701.00
2022-08-20T07:36:34.954Z,666.00
2022-08-20T07:37:35.218Z,755.00
2022-08-20T07:38:35.505Z,761.00
2022-08-20T07:39:35.749Z,819.00
2022-08-20T07:40:36.036Z,861.00
2022-08-20T07:41:36.403Z,775.00
2022-08-20T07:42:36.780Z,645.00
2022-08-20T07:43:36.939Z,582.00
2022-08-20T07:44:37.407Z,574.00
2022-08-20T07:45:37.583Z,576.00
2022-08-20T07:46:37.945Z,634.00
2022-08-20T07:47:38.156Z,690.00
2022-08-20T07:48:38.424Z,695.00
2022-08-20T07:49:38.826Z,651.00
2022-08-20T07:50:38.870Z,631.00
2022-08-20T07:51:39.307Z,630.00
2022-08-20T07:52:39.541Z,715.00
2022-08-20T07:53:39.869Z,831.00
2022-08-20T07:54:40.179Z,787.00
2022-08-20T07:55:40.421Z,781.00
2022-08-20T07:56:41.671Z,863.00
2022-08-20T07:57:40.865Z,971.00
2022-08-20T07:58:41.505Z,951.00
2022-08-20T07:59:41.535Z,935.00
2022-08-20T08:00:41.809Z,850.00
2022-08-20T08:01:42.012Z,951.00
2022-08-20T08:02:42.365Z,992.00
2022-08-20T08:03:50.030Z,1059.00
2022-08-20T08:04:44.067Z,1036.00
2022-08-20T08:05:43.162Z,1033.00
2022-08-20T08:06:43.438Z,1054.00
2022-08-20T08:07:43.715Z,1205.00
2022-08-20T08:08:43.945Z,1389.00
2022-08-20T08:09:44.188Z,1651.00
2022-08-20T08:10:44.467Z,1949.00
2022-08-20T08:11:47.405Z,2099.00
2022-08-20T08:12:44.940Z,2050.00
2022-08-20T08:13:45.306Z,1907.00
2022-08-20T08:14:45.735Z,1757.00
2022-08-20T08:15:45.825Z,1813.00
2022-08-20T08:16:46.105Z,1814.00
2022-08-20T08:17:46.366Z,2103.00
2022-08-20T08:18:46.614Z,2080.00
2022-08-20T08:19:46.878Z,2179.00
2022-08-20T08:20:47.199Z,2030.00
2022-08-20T08:21:47.377Z,2098.00
2022-08-20T08:22:47.623Z,2013.00
2022-08-20T08:23:47.967Z,1942.00
2022-08-20T08:24:57.366Z,1722.00
2022-08-20T08:25:49.574Z,1840.00
2022-08-20T08:26:48.848Z,1937.00
2022-08-20T08:27:49.213Z,1954.00
2022-08-20T08:28:50.431Z,1888.00
2022-08-20T08:29:49.842Z,1979.00
2022-08-20T08:30:49.956Z,2176.00
2022-08-20T08:31:50.207Z,2504.00
2022-08-20T08:32:50.454Z,2890.00
2022-08-20T08:33:50.696Z,3234.00
2022-08-20T08:34:50.927Z,3387.00
2022-08-20T08:35:51.309Z,3119.00
2022-08-20T08:36:51.545Z,3069.00
2022-08-20T08:37:51.773Z,3295.00
2022-08-20T08:38:52.203Z,3607.00
2022-08-20T08:39:52.426Z,3676.00
2022-08-20T08:40:52.725Z,3767.00
2022-08-20T08:41:53.957Z,3413.00
2022-08-20T08:42:53.196Z,3085.00
2022-08-20T08:43:54.801Z,2614.00
2022-08-20T08:44:53.742Z,2489.00
2022-08-20T08:45:54.119Z,2828.00
2022-08-20T08:46:54.291Z,3072.00
2022-08-20T08:47:54.654Z,3111.00
2022-08-20T08:48:54.902Z,2961.00
2022-08-20T08:49:55.145Z,3156.00
2022-08-20T08:50:55.361Z,3200.00
2022-08-20T08:51:55.691Z,3443.00
2022-08-20T08:52:56.199Z,2931.00
2022-08-20T08:53:56.375Z,2990.00
2022-08-20T08:54:56.678Z,3146.00
2022-08-20T08:55:56.850Z,3484.00
2022-08-20T08:56:57.199Z,3283.00
2022-08-20T08:57:57.425Z,2548.00
2022-08-20T08:58:57.760Z,4140.00
2022-08-20T09:00:03.975Z,2543.00
2022-08-20T09:01:02.145Z,2325.00
2022-08-20T09:01:59.568Z,3886.00
2022-08-20T09:02:59.175Z,5433.00
2022-08-20T09:03:59.016Z,6519.00
2022-08-20T09:04:59.435Z,2838.00
2022-08-20T09:05:59.647Z,3154.00
2022-08-20T09:07:00.071Z,3238.00
2022-08-20T09:08:00.227Z,3335.00
2022-08-20T09:09:00.446Z,16371.00
2022-08-20T09:10:00.703Z,3930.00
2022-08-20T09:11:00.933Z,3093.00
2022-08-20T09:12:01.696Z,13293.00
2022-08-20T09:13:01.502Z,15571.00
2022-08-20T09:14:01.742Z,3051.00
2022-08-20T09:15:02.060Z,2341.00
2022-08-20T09:16:02.289Z,1444.00
2022-08-20T09:17:02.539Z,3429.00
2022-08-20T09:18:02.760Z,2487.00
2022-08-20T09:19:03.118Z,2584.00
2022-08-20T09:20:03.447Z,2442.00
2022-08-20T09:21:03.636Z,2260.00
2022-08-20T09:22:03.973Z,2430.00
2022-08-20T09:23:04.253Z,2480.00
2022-08-20T09:24:04.553Z,2612.00
2022-08-20T09:25:04.805Z,2770.00
2022-08-20T09:26:05.006Z,2583.00
2022-08-20T09:27:05.242Z,2999.00
2022-08-20T09:28:05.482Z,3235.00
2022-08-20T09:29:05.740Z,3829.00
2022-08-20T09:30:06.099Z,3439.00
2022-08-20T09:31:06.491Z,2710.00
2022-08-20T09:32:06.606Z,2458.00
2022-08-20T09:33:06.919Z,2717.00
2022-08-20T09:34:07.141Z,2986.00
2022-08-20T09:35:09.585Z,3099.00
2022-08-20T09:36:31.624Z,3649.00
2022-08-20T09:37:08.906Z,3449.00
2022-08-20T09:38:08.169Z,2617.00
2022-08-20T09:39:08.397Z,2384.00
2022-08-20T09:40:08.831Z,2889.00
2022-08-20T09:41:09.118Z,3063.00
2022-08-20T09:42:09.382Z,2999.00
2022-08-20T09:43:09.611Z,2591.00
2022-08-20T09:44:09.850Z,1743.00
2022-08-20T09:45:11.031Z,1857.00
2022-08-20T09:46:10.385Z,1815.00
2022-08-20T09:47:10.658Z,2130.00
2022-08-20T09:48:10.911Z,2309.00
2022-08-20T09:49:11.133Z,2723.00
2022-08-20T09:50:11.502Z,3239.00
2022-08-20T09:51:11.740Z,3985.00
2022-08-20T09:52:12.028Z,4415.00
2022-08-20T09:53:12.229Z,2565.00
2022-08-20T09:54:12.589Z,12466.00
2022-08-20T09:55:12.891Z,4176.00
2022-08-20T09:56:13.095Z,11661.00
2022-08-20T09:57:13.354Z,4988.00
2022-08-20T09:58:13.578Z,6203.00
2022-08-20T09:59:13.847Z,6315.00
2022-08-20T10:00:14.251Z,3368.00
2022-08-20T10:01:14.522Z,5520.00
2022-08-20T10:02:14.567Z,5919.00
2022-08-20T10:03:14.802Z,5634.00
2022-08-20T10:04:15.048Z,4776.00
2022-08-20T10:05:15.313Z,3698.00
2022-08-20T10:06:15.535Z,2447.00
2022-08-20T10:07:16.018Z,2282.00
2022-08-20T10:08:16.112Z,1945.00
2022-08-20T10:09:16.354Z,1487.00
2022-08-20T10:10:16.603Z,2652.00
2022-08-20T10:11:16.884Z,4083.00
2022-08-20T10:12:17.125Z,7685.00
2022-08-20T10:13:17.514Z,6127.00
2022-08-20T10:14:17.628Z,5910.00
2022-08-20T10:15:18.349Z,3460.00
2022-08-20T10:16:18.226Z,3061.00
2022-08-20T10:17:18.600Z,5792.00
2022-08-20T10:18:18.825Z,4661.00
2022-08-20T10:19:19.177Z,5967.00
2022-08-20T10:20:19.482Z,5380.00
2022-08-20T10:21:19.686Z,4172.00
2022-08-20T10:22:19.956Z,3920.00
2022-08-20T10:23:20.202Z,3243.00
2022-08-20T10:24:20.463Z,3014.00
2022-08-20T10:25:20.682Z,3480.00
2022-08-20T10:26:20.918Z,3256.00
2022-08-20T10:27:21.178Z,2026.00
2022-08-20T10:28:21.444Z,63637.00
2022-08-20T10:29:21.702Z,27733.00
2022-08-20T10:30:21.962Z,20226.00
2022-08-20T10:31:22.222Z,5774.00
2022-08-20T10:32:22.483Z,3977.00
2022-08-20T10:33:22.715Z,5322.00
2022-08-20T10:34:22.989Z,3282.00
2022-08-20T10:35:23.222Z,2643.00
2022-08-20T10:36:23.484Z,2036.00
2022-08-20T10:37:23.775Z,1607.00
2022-08-20T10:38:24.044Z,1215.00
2022-08-20T10:39:24.295Z,1013.00
2022-08-20T10:40:24.719Z,1288.00
2022-08-20T10:41:25.780Z,1305.00
2022-08-20T10:42:25.247Z,1522.00
2022-08-20T10:43:25.483Z,2226.00
2022-08-20T10:44:25.791Z,2585.00
2022-08-20T10:45:26.080Z,17970.00
2022-08-20T10:46:26.292Z,8918.00
2022-08-20T10:47:26.659Z,3009.00
2022-08-20T10:48:27.491Z,3000.00
2022-08-20T10:49:27.161Z,3402.00
2022-08-20T10:50:30.189Z,4097.00
2022-08-20T10:51:32.278Z,4256.00
2022-08-20T10:52:28.988Z,7584.00
2022-08-20T10:53:28.232Z,10394.00
2022-08-20T10:54:28.455Z,5295.00
2022-08-20T10:55:28.806Z,3805.00
2022-08-20T10:56:29.206Z,16100.00
2022-08-20T10:57:29.365Z,4756.00
2022-08-20T10:58:39.541Z,3029.00
2022-08-20T10:59:30.886Z,22003.00
2022-08-20T11:00:30.154Z,20790.00
2022-08-20T11:01:33.977Z,4822.00
2022-08-20T11:02:31.632Z,5256.00
2022-08-20T11:03:30.940Z,9538.00
2022-08-20T11:04:31.176Z,5896.00
2022-08-20T11:05:31.432Z,3903.00
2022-08-20T11:06:31.703Z,3723.00
2022-08-20T11:07:54.763Z,2409.00
2022-08-20T11:08:36.003Z,9269.00
2022-08-20T11:09:32.547Z,11768.00
2022-08-20T11:10:32.792Z,3134.00
2022-08-20T11:11:33.059Z,14548.00
2022-08-20T11:12:33.302Z,7355.00
2022-08-20T11:13:33.542Z,76474.00
2022-08-20T11:14:33.817Z,4664.00
2022-08-20T11:15:34.064Z,6193.00
2022-08-20T11:16:34.322Z,3963.00
2022-08-20T11:17:34.543Z,3972.00
2022-08-20T11:18:34.846Z,63377.00
2022-08-20T11:19:35.225Z,3785.00
2022-08-20T11:20:35.495Z,12657.00
2022-08-20T11:21:35.763Z,2096.00
2022-08-20T11:22:35.983Z,7641.00
2022-08-20T11:23:36.232Z,9717.00
2022-08-20T11:24:36.645Z,4535.00
2022-08-20T11:25:36.789Z,9082.00
2022-08-20T11:26:37.203Z,57651.00
2022-08-20T11:27:37.421Z,5675.00
2022-08-20T11:28:37.640Z,3020.00
2022-08-20T11:29:37.908Z,2379.00
2022-08-20T11:30:38.255Z,1929.00
2022-08-20T11:31:38.506Z,2266.00
2022-08-20T11:32:38.733Z,1570.00
2022-08-20T11:33:38.958Z,7627.00
2022-08-20T11:34:39.325Z,6171.00
2022-08-20T11:35:48.663Z,3167.00
2022-08-20T11:36:40.844Z,2811.00
2022-08-20T11:37:40.057Z,2682.00
2022-08-20T11:38:40.467Z,4901.00
2022-08-20T11:39:41.936Z,16731.00
2022-08-20T11:40:41.044Z,21751.00
2022-08-20T11:41:41.288Z,70049.00
2022-08-20T11:43:04.416Z,14206.00
2022-08-20T11:43:54.956Z,11036.00
2022-08-20T11:44:43.129Z,79174.00
2022-08-20T11:45:42.413Z,79008.00
2022-08-20T11:46:42.642Z,78633.00
2022-08-20T11:47:42.911Z,78333.00
2022-08-20T11:48:43.209Z,78546.00
2022-08-20T11:49:43.444Z,81842.00
2022-08-20T11:50:43.678Z,6319.00
2022-08-20T11:51:50.040Z,24080.00
2022-08-20T11:52:45.359Z,74300.00
2022-08-20T11:53:44.598Z,13383.00
2022-08-20T11:54:44.849Z,79536.00
2022-08-20T11:55:45.126Z,80056.00
2022-08-20T11:56:46.052Z,79659.00
2022-08-20T11:57:45.661Z,75178.00
2022-08-20T11:58:45.900Z,7826.00
2022-08-20T11:59:46.197Z,78900.00
2022-08-20T12:00:46.514Z,64355.00
2022-08-20T12:02:02.981Z,24953.00
2022-08-20T12:02:48.024Z,10274.00
2022-08-20T12:03:47.282Z,81464.00
2022-08-20T12:04:47.557Z,80675.00
2022-08-20T12:05:47.858Z,79413.00
2022-08-20T12:06:48.170Z,79684.00
2022-08-20T12:07:48.383Z,81424.00
2022-08-20T12:08:48.700Z,80979.00
2022-08-20T12:09:50.767Z,2055.00
2022-08-20T12:10:49.224Z,56662.00
2022-08-20T12:11:49.435Z,3612.00
2022-08-20T12:12:49.774Z,12136.00
2022-08-20T12:13:49.955Z,80678.00
2022-08-20T12:14:50.298Z,5303.00
2022-08-20T12:15:50.536Z,9234.00
2022-08-20T12:16:50.803Z,81491.00
2022-08-20T12:17:51.060Z,81093.00
2022-08-20T12:18:51.334Z,76916.00
2022-08-20T12:19:51.650Z,28880.00
2022-08-20T12:20:51.868Z,9792.00
2022-08-20T12:21:52.133Z,6314.00
2022-08-20T12:22:52.438Z,79979.00
2022-08-20T12:23:52.667Z,72244.00
2022-08-20T12:24:52.966Z,15758.00
2022-08-20T12:25:53.145Z,4176.00
2022-08-20T12:26:53.442Z,3895.00
2022-08-20T12:27:53.682Z,3437.00
2022-08-20T12:28:53.916Z,3545.00
2022-08-20T12:29:54.127Z,3670.00
2022-08-20T12:30:54.613Z,4299.00
2022-08-20T12:31:54.831Z,3681.00
2022-08-20T12:32:55.167Z,3917.00
2022-08-20T12:33:55.336Z,3884.00
2022-08-20T12:34:55.580Z,3233.00
2022-08-20T12:35:55.928Z,1110.00
2022-08-20T12:36:56.169Z,3407.00
2022-08-20T12:37:56.555Z,3229.00
2022-08-20T12:38:56.889Z,3523.00